createdAt,value
2018-11-12T00:00:47.962Z,161.40
2018-11-12T00:03:20.183Z,161.20
2018-11-12T00:05:52.472Z,165.60
2018-11-12T00:08:24.764Z,166.20
2018-11-12T00:10:57.266Z,166.20
2018-11-12T00:13:29.354Z,173.40
2018-11-12T00:16:01.682Z,166.20
2018-11-12T00:18:33.911Z,163.20
2018-11-12T00:21:06.436Z,159.40
2018-11-12T00:23:38.568Z,155.60
2018-11-12T00:26:10.758Z,155.00
2018-11-12T00:28:42.600Z,160.60
2018-11-12T00:31:15.032Z,154.80
2018-11-12T00:33:47.052Z,156.80
2018-11-12T00:36:18.844Z,147.80
2018-11-12T00:38:51.046Z,154.40
2018-11-12T00:41:23.053Z,152.20
2018-11-12T00:43:54.792Z,153.40
2018-11-12T00:46:26.909Z,159.20
2018-11-12T00:48:59.051Z,146.40
2018-11-12T00:51:31.710Z,157.40
2018-11-12T00:54:03.866Z,153.20
2018-11-12T00:56:36.106Z,150.40
2018-11-12T00:59:07.732Z,154.40
2018-11-12T01:01:40.131Z,147.80
2018-11-12T01:04:12.376Z,152.40
2018-11-12T01:06:44.728Z,152.00
2018-11-12T01:09:16.829Z,153.20
2018-11-12T01:11:49.724Z,149.60
2018-11-12T01:14:22.157Z,148.20
2018-11-12T01:16:54.478Z,150.00
2018-11-12T01:19:26.578Z,153.40
2018-11-12T01:21:58.927Z,152.80
2018-11-12T01:24:31.010Z,147.20
2018-11-12T01:27:03.206Z,147.20
2018-11-12T01:29:35.424Z,145.40
2018-11-12T01:32:07.360Z,145.40
2018-11-12T01:34:39.485Z,157.60
2018-11-12T01:37:11.438Z,148.60
2018-11-12T01:39:43.692Z,153.00
2018-11-12T01:42:15.707Z,153.20
2018-11-12T01:44:47.810Z,169.80
2018-11-12T01:47:19.763Z,164.00
2018-11-12T01:49:51.640Z,162.60
2018-11-12T01:52:24.346Z,171.20
2018-11-12T01:54:56.667Z,196.50
2018-11-12T01:57:28.854Z,189.50
2018-11-12T02:00:00.905Z,196.75
2018-11-12T02:02:33.141Z,186.75
2018-11-12T02:05:05.388Z,188.75
2018-11-12T02:07:37.566Z,185.50
2018-11-12T02:10:11.086Z,195.50
2018-11-12T02:12:43.692Z,192.75
2018-11-12T02:15:17.274Z,174.50
2018-11-12T02:17:50.112Z,190.75
2018-11-12T02:20:22.713Z,186.25
2018-11-12T02:22:55.283Z,196.25
2018-11-12T02:25:27.341Z,192.50
2018-11-12T02:27:59.704Z,194.00
2018-11-12T02:30:36.516Z,194.25
2018-11-12T02:33:08.357Z,196.50
2018-11-12T02:35:40.559Z,203.50
2018-11-12T02:38:12.736Z,198.00
2018-11-12T02:40:44.808Z,199.50
2018-11-12T02:43:17.115Z,201.50
2018-11-12T02:45:48.994Z,204.00
2018-11-12T02:48:21.249Z,206.00
2018-11-12T02:50:53.971Z,198.25
2018-11-12T02:53:26.634Z,202.50
2018-11-12T02:55:58.666Z,212.75
2018-11-12T02:58:30.875Z,209.00
2018-11-12T03:01:02.978Z,225.25
2018-11-12T03:03:35.453Z,210.50
2018-11-12T03:06:07.558Z,231.25
2018-11-12T03:08:39.728Z,221.50
2018-11-12T03:11:11.609Z,228.50
2018-11-12T03:13:44.022Z,216.25
2018-11-12T03:16:16.208Z,226.25
2018-11-12T03:18:48.474Z,229.50
2018-11-12T03:21:20.497Z,223.50
2018-11-12T03:23:53.258Z,232.50
2018-11-12T03:26:25.163Z,221.00
2018-11-12T03:28:57.200Z,222.00
2018-11-12T03:31:29.472Z,214.50
2018-11-12T03:34:01.417Z,216.25
2018-11-12T03:36:33.469Z,213.50
2018-11-12T03:39:05.999Z,208.50
2018-11-12T03:41:38.011Z,206.75
2018-11-12T03:44:19.782Z,200.50
2018-11-12T03:46:51.795Z,212.00
2018-11-12T03:49:23.847Z,213.75
2018-11-12T03:51:55.850Z,202.50
2018-11-12T03:54:28.541Z,205.25
2018-11-12T03:57:00.574Z,201.25
2018-11-12T03:59:32.529Z,198.25
2018-11-12T04:02:04.727Z,208.00
2018-11-12T04:04:36.847Z,197.50
2018-11-12T04:07:08.690Z,189.00
2018-11-12T04:09:40.764Z,190.25
2018-11-12T04:12:12.859Z,191.25
2018-11-12T04:14:45.882Z,209.25
2018-11-12T04:17:18.033Z,196.00
2018-11-12T04:19:50.343Z,191.75
2018-11-12T04:22:22.339Z,198.75
2018-11-12T04:24:55.291Z,203.25
2018-11-12T04:27:27.614Z,198.00
2018-11-12T04:29:59.721Z,200.00
2018-11-12T04:32:31.853Z,195.50
2018-11-12T04:35:04.133Z,196.25
2018-11-12T04:37:36.227Z,195.00
2018-11-12T04:40:09.067Z,193.75
2018-11-12T04:42:41.535Z,198.25
2018-11-12T04:45:15.901Z,196.00
2018-11-12T04:47:48.605Z,200.25
2018-11-12T04:50:23.121Z,198.50
2018-11-12T04:52:55.465Z,198.25
2018-11-12T04:55:28.109Z,191.75
2018-11-12T04:58:00.010Z,195.50
2018-11-12T05:00:32.021Z,189.25
2018-11-12T05:03:04.050Z,186.00
2018-11-12T05:05:36.317Z,198.75
2018-11-12T05:08:08.153Z,194.50
2018-11-12T05:10:40.390Z,188.50
2018-11-12T05:13:12.335Z,194.75
2018-11-12T05:15:44.583Z,180.75
2018-11-12T05:18:16.638Z,179.25
2018-11-12T05:20:48.940Z,186.25
2018-11-12T05:23:20.690Z,175.75
2018-11-12T05:25:53.399Z,187.50
2018-11-12T05:28:26.089Z,177.25
2018-11-12T05:30:58.372Z,170.80
2018-11-12T05:33:30.410Z,170.00
2018-11-12T05:36:02.599Z,170.00
2018-11-12T05:38:34.738Z,165.80
2018-11-12T05:41:06.966Z,172.00
2018-11-12T05:43:38.955Z,164.40
2018-11-12T05:46:10.968Z,154.00
2018-11-12T05:48:43.113Z,155.20
2018-11-12T05:51:15.624Z,153.20
2018-11-12T05:53:47.765Z,155.80
2018-11-12T05:56:20.263Z,152.20
2018-11-12T05:58:52.285Z,140.40
2018-11-12T06:01:24.688Z,148.20
2018-11-12T06:03:56.775Z,152.80
2018-11-12T06:06:28.668Z,142.80
2018-11-12T06:09:02.730Z,133.40
2018-11-12T06:11:35.170Z,129.40
2018-11-12T06:14:07.491Z,128.80
2018-11-12T06:16:39.582Z,134.00
2018-11-12T06:19:11.714Z,127.00
2018-11-12T06:21:43.904Z,130.00
2018-11-12T06:24:15.888Z,123.20
2018-11-12T06:26:48.453Z,127.00
2018-11-12T06:29:20.556Z,120.20
2018-11-12T06:31:52.849Z,120.00
2018-11-12T06:34:24.548Z,120.80
2018-11-12T06:36:57.167Z,120.20
2018-11-12T06:39:29.318Z,119.40
2018-11-12T06:42:01.302Z,109.40
2018-11-12T06:44:33.186Z,111.40
2018-11-12T06:47:05.338Z,113.00
2018-11-12T06:49:37.456Z,110.60
2018-11-12T06:52:09.737Z,110.20
2018-11-12T06:54:41.506Z,111.40
2018-11-12T06:57:14.041Z,110.40
2018-11-12T06:59:46.032Z,104.80
2018-11-12T07:02:17.862Z,113.80
2018-11-12T07:04:49.741Z,108.20
2018-11-12T07:07:21.818Z,111.00
2018-11-12T07:09:54.868Z,107.60
2018-11-12T07:12:27.382Z,106.60
2018-11-12T07:15:15.660Z,105.80
2018-11-12T07:18:03.286Z,105.60
2018-11-12T07:20:52.652Z,111.20
2018-11-12T07:23:24.875Z,99.40
2018-11-12T07:25:56.831Z,102.60
2018-11-12T07:28:29.367Z,103.60
2018-11-12T07:31:01.589Z,107.40
2018-11-12T07:33:33.427Z,101.60
2018-11-12T07:36:05.334Z,106.00
2018-11-12T07:38:37.438Z,98.40
2018-11-12T07:41:09.391Z,99.80
2018-11-12T07:43:41.538Z,101.60
2018-11-12T07:46:17.518Z,105.80
2018-11-12T07:48:49.684Z,101.80
2018-11-12T07:51:21.941Z,102.60
2018-11-12T07:53:53.830Z,102.20
2018-11-12T07:56:26.106Z,99.80
2018-11-12T07:58:58.823Z,95.20
2018-11-12T08:01:31.156Z,96.60
2018-11-12T08:04:03.311Z,97.60
2018-11-12T08:06:35.224Z,98.80
2018-11-12T08:09:08.538Z,96.80
2018-11-12T08:11:41.048Z,96.40
2018-11-12T08:14:13.424Z,89.20
2018-11-12T08:16:45.897Z,93.00
2018-11-12T08:19:18.050Z,95.60
2018-11-12T08:21:50.152Z,89.60
2018-11-12T08:24:22.550Z,98.80
2018-11-12T08:26:54.689Z,94.80
2018-11-12T08:29:27.079Z,94.80
2018-11-12T08:31:59.258Z,92.20
2018-11-12T08:34:31.193Z,83.80
2018-11-12T08:37:03.659Z,88.20
2018-11-12T08:39:35.804Z,90.00
2018-11-12T08:42:07.854Z,86.40
2018-11-12T08:44:39.904Z,85.60
2018-11-12T08:47:11.963Z,83.80
2018-11-12T08:49:44.092Z,87.20
2018-11-12T08:52:16.390Z,84.00
2018-11-12T08:54:48.562Z,90.60
2018-11-12T08:57:20.615Z,88.20
2018-11-12T08:59:53.333Z,85.00
2018-11-12T09:02:25.365Z,84.20
2018-11-12T09:04:57.688Z,86.40
2018-11-12T09:07:29.611Z,90.80
2018-11-12T09:10:01.516Z,86.20
2018-11-12T09:12:34.068Z,85.60
2018-11-12T09:15:06.101Z,88.40
2018-11-12T09:17:38.735Z,80.00
2018-11-12T09:20:12.975Z,77.00
2018-11-12T09:22:44.977Z,79.80
2018-11-12T09:25:18.177Z,82.20
2018-11-12T09:27:50.438Z,82.80
2018-11-12T09:30:24.468Z,82.20
2018-11-12T09:32:56.791Z,82.40
2018-11-12T09:35:30.172Z,79.80
2018-11-12T09:38:03.393Z,84.40
2018-11-12T09:40:38.487Z,79.20
2018-11-12T09:43:10.547Z,79.80
2018-11-12T09:45:42.830Z,73.60
2018-11-12T09:48:14.843Z,82.20
2018-11-12T09:50:46.824Z,85.80
2018-11-12T09:53:18.728Z,84.20
2018-11-12T09:55:50.934Z,84.80
2018-11-12T09:58:22.934Z,83.20
2018-11-12T10:00:56.499Z,86.40
2018-11-12T10:03:30.524Z,78.00
2018-11-12T10:06:03.268Z,81.40
2018-11-12T10:08:38.526Z,84.60
2018-11-12T10:11:11.321Z,81.00
2018-11-12T10:13:43.050Z,83.40
2018-11-12T10:16:15.977Z,85.20
2018-11-12T10:18:45.721Z,84.20
2018-11-12T10:21:17.923Z,82.00
2018-11-12T10:23:50.096Z,82.60
2018-11-12T10:26:22.527Z,76.80
2018-11-12T10:28:54.536Z,78.40
2018-11-12T10:31:27.488Z,77.20
2018-11-12T10:33:59.310Z,73.60
2018-11-12T10:36:31.558Z,74.60
2018-11-12T10:39:03.649Z,83.20
2018-11-12T10:41:35.528Z,78.40
2018-11-12T10:44:09.718Z,79.60
2018-11-12T10:46:43.391Z,80.00
2018-11-12T10:49:17.964Z,78.20
2018-11-12T10:51:50.607Z,76.40
2018-11-12T10:54:22.782Z,81.20
2018-11-12T10:56:54.949Z,80.00
2018-11-12T10:59:27.024Z,71.60
2018-11-12T11:02:03.953Z,77.00
2018-11-12T11:04:36.017Z,73.80
2018-11-12T11:07:08.347Z,75.00
2018-11-12T11:09:40.055Z,80.60
2018-11-12T11:12:12.413Z,73.60
2018-11-12T11:14:44.516Z,81.00
2018-11-12T11:17:17.353Z,94.60
2018-11-12T11:19:49.466Z,91.40
2018-11-12T11:22:21.799Z,79.60
2018-11-12T11:24:53.963Z,90.00
2018-11-12T11:27:26.527Z,89.00
2018-11-12T11:29:58.571Z,80.60
2018-11-12T11:32:31.325Z,87.80
2018-11-12T11:35:03.236Z,88.60
2018-11-12T11:37:35.422Z,93.60
2018-11-12T11:40:10.343Z,85.00
2018-11-12T11:42:42.644Z,88.80
2018-11-12T11:45:15.438Z,85.00
2018-11-12T11:47:48.546Z,85.40
2018-11-12T11:50:22.007Z,89.40
2018-11-12T11:52:54.303Z,81.40
2018-11-12T11:55:26.639Z,84.40
2018-11-12T11:57:58.856Z,91.40
2018-11-12T12:00:31.252Z,82.00
2018-11-12T12:03:03.790Z,82.80
2018-11-12T12:05:35.991Z,83.40
2018-11-12T13:08:04.883Z,135.75
2018-11-12T13:10:38.239Z,118.20
2018-11-12T13:13:11.015Z,137.40
2018-11-12T13:15:42.732Z,138.60
2018-11-12T13:18:14.512Z,160.80
2018-11-12T13:20:46.818Z,175.40
2018-11-12T13:23:19.117Z,179.25
2018-11-12T13:25:51.780Z,228.50
2018-11-12T13:28:23.532Z,217.00
2018-11-12T13:30:55.251Z,227.25
2018-11-12T13:33:27.173Z,221.00
2018-11-12T13:35:59.195Z,237.00
2018-11-12T13:38:31.130Z,247.25
2018-11-12T13:41:04.703Z,253.25
2018-11-12T13:43:37.178Z,229.50
2018-11-12T13:46:08.887Z,248.75
2018-11-12T13:48:40.708Z,243.00
2018-11-12T13:51:12.256Z,253.75
2018-11-12T13:53:44.052Z,260.00
2018-11-12T13:56:15.889Z,239.00
2018-11-12T13:58:48.171Z,261.75
2018-11-12T14:01:19.814Z,265.75
2018-11-12T14:03:52.360Z,255.50
2018-11-12T14:06:24.159Z,262.75
2018-11-12T14:08:56.623Z,276.50
2018-11-12T14:11:29.290Z,296.50
2018-11-12T14:14:01.913Z,296.75
2018-11-12T14:16:33.958Z,325.20
2018-11-12T14:19:06.560Z,295.20
2018-11-12T14:21:38.544Z,277.25
2018-11-12T14:24:11.611Z,272.75
2018-11-12T14:26:43.529Z,280.00
2018-11-12T14:29:15.303Z,283.25
2018-11-12T14:31:47.159Z,285.00
2018-11-12T14:34:19.293Z,276.75
2018-11-12T14:36:51.642Z,283.25
2018-11-12T14:39:24.034Z,291.00
2018-11-12T14:41:56.398Z,279.00
2018-11-12T14:44:28.293Z,280.25
2018-11-12T14:47:00.110Z,266.75
2018-11-12T14:49:32.180Z,282.00
2018-11-12T14:52:04.028Z,285.75
2018-11-12T14:54:36.772Z,285.25
2018-11-12T14:57:08.837Z,281.25
2018-11-12T14:59:40.966Z,290.25
2018-11-12T15:02:12.830Z,277.00
2018-11-12T15:04:44.745Z,292.75
2018-11-12T15:07:16.662Z,276.25
2018-11-12T15:09:48.350Z,275.25
2018-11-12T15:12:20.965Z,291.50
2018-11-12T15:14:53.481Z,290.00
2018-11-12T15:17:26.224Z,295.25
2018-11-12T15:19:57.976Z,282.50
2018-11-12T15:22:29.715Z,301.75
2018-11-12T15:25:01.367Z,292.80
2018-11-12T15:27:34.411Z,281.25
2018-11-12T15:30:07.401Z,268.75
2018-11-12T15:32:39.172Z,284.80
2018-11-12T15:35:11.849Z,286.75
2018-11-12T15:37:44.138Z,275.00
2018-11-12T15:40:16.335Z,259.00
2018-11-12T15:42:48.383Z,257.25
2018-11-12T15:45:23.312Z,227.75
2018-11-12T15:47:55.271Z,248.50
2018-11-12T15:50:33.464Z,238.00
2018-11-12T15:53:05.058Z,230.25
2018-11-12T15:55:36.837Z,235.75
2018-11-12T15:58:08.632Z,243.25
2018-11-12T16:00:40.487Z,244.50
2018-11-12T16:03:11.987Z,241.75
2018-11-12T16:05:43.804Z,253.25
2018-11-12T16:08:15.395Z,259.00
2018-11-12T16:10:47.289Z,261.25
2018-11-12T16:13:20.360Z,256.00
2018-11-12T16:15:53.251Z,237.50
2018-11-12T16:18:25.828Z,257.00
2018-11-12T16:20:57.403Z,252.25
2018-11-12T16:23:29.259Z,255.00
2018-11-12T16:26:01.164Z,259.50
2018-11-12T16:30:59.405Z,253.00
2018-11-12T16:33:30.969Z,274.25
2018-11-12T16:36:02.706Z,277.25
2018-11-12T16:38:34.967Z,272.75
2018-11-12T16:41:06.645Z,283.00
2018-11-12T16:43:39.394Z,267.00
2018-11-12T16:46:11.569Z,275.50
2018-11-12T16:48:43.338Z,268.50
2018-11-12T16:51:14.670Z,254.75
2018-11-12T16:53:46.619Z,266.60
2018-11-12T16:56:18.269Z,278.75
2018-11-12T16:58:50.606Z,275.00
2018-11-12T17:01:22.258Z,272.00
2018-11-12T17:03:54.188Z,287.50
2018-11-12T17:06:25.801Z,284.00
2018-11-12T17:08:57.819Z,278.50
2018-11-12T17:11:29.329Z,273.00
2018-11-12T17:14:02.197Z,257.50
2018-11-12T17:16:34.254Z,251.00
2018-11-12T17:19:07.111Z,255.50
2018-11-12T17:21:39.069Z,262.75
2018-11-12T17:24:11.345Z,258.50
2018-11-12T17:26:42.897Z,254.50
2018-11-12T17:29:14.454Z,259.00
2018-11-12T17:31:46.127Z,256.00
2018-11-12T17:34:17.543Z,262.50
2018-11-12T17:36:49.252Z,260.75
2018-11-12T17:39:20.980Z,257.50
2018-11-12T17:41:52.436Z,249.00
2018-11-12T17:44:24.944Z,272.75
2018-11-12T17:46:56.738Z,243.00
2018-11-12T17:49:28.426Z,253.50
2018-11-12T17:52:00.329Z,259.00
2018-11-12T17:54:32.553Z,255.00
2018-11-12T17:57:04.529Z,256.50
2018-11-12T17:59:36.816Z,259.50
2018-11-12T18:04:30.399Z,253.25
2018-11-12T18:07:03.295Z,237.50
2018-11-12T18:09:35.399Z,266.25
2018-11-12T18:12:08.173Z,258.00
2018-11-12T18:14:40.319Z,243.25
2018-11-12T18:19:42.612Z,265.50
2018-11-12T18:22:14.817Z,264.25
2018-11-12T18:24:46.533Z,249.25
2018-11-12T18:27:18.085Z,256.00
2018-11-12T18:29:49.809Z,267.25
2018-11-12T18:32:21.632Z,265.50
2018-11-12T18:34:53.267Z,261.75
2018-11-12T18:37:24.846Z,259.00
2018-11-12T18:39:56.377Z,257.50
2018-11-12T18:42:27.860Z,260.00
2018-11-12T18:44:59.968Z,254.50
2018-11-12T18:47:31.560Z,258.00
2018-11-12T18:50:03.220Z,265.75
2018-11-12T18:52:34.707Z,239.75
2018-11-12T18:55:07.228Z,251.50
2018-11-12T18:57:39.404Z,254.50
2018-11-12T19:02:46.226Z,246.25
2018-11-12T19:05:21.595Z,247.50
2018-11-12T19:12:30.268Z,253.25
2018-11-12T19:15:02.602Z,251.75
2018-11-12T19:20:31.321Z,242.50
2018-11-12T19:23:02.920Z,247.50
2018-11-12T19:25:34.636Z,266.50
2018-11-12T19:28:06.356Z,238.00
2018-11-12T19:30:38.031Z,242.00
2018-11-12T19:35:35.506Z,230.00
2018-11-12T19:40:32.460Z,230.25
2018-11-12T19:43:04.149Z,234.25
2018-11-12T19:47:59.327Z,223.25
2018-11-12T19:50:31.518Z,248.00
2018-11-12T19:53:03.269Z,246.25
2018-11-12T19:55:34.979Z,245.75
2018-11-12T19:58:06.593Z,239.50
2018-11-12T20:00:38.266Z,249.50
2018-11-12T20:03:09.837Z,237.50
2018-11-12T20:05:41.334Z,242.75
2018-11-12T20:10:41.185Z,247.50
2018-11-12T20:13:12.695Z,239.50
2018-11-12T20:15:44.720Z,231.75
2018-11-12T20:18:16.477Z,247.00
2018-11-12T20:23:12.335Z,243.75
2018-11-12T20:25:43.778Z,253.25
2018-11-12T20:28:15.311Z,254.75
2018-11-12T20:30:46.807Z,240.50
2018-11-12T20:33:18.442Z,238.75
2018-11-12T20:37:19.498Z,244.50
2018-11-12T20:39:51.584Z,267.75
2018-11-12T20:44:38.181Z,262.50
2018-11-12T20:47:10.373Z,261.25
2018-11-12T20:49:41.885Z,272.00
2018-11-12T20:52:13.659Z,267.25
2018-11-12T20:54:46.229Z,269.50
2018-11-12T20:57:18.135Z,265.50
2018-11-12T20:59:49.720Z,284.50
2018-11-12T21:02:21.114Z,275.25
2018-11-12T21:07:52.832Z,273.75
2018-11-12T21:10:24.386Z,255.50
2018-11-12T21:12:55.930Z,264.50
2018-11-12T21:17:49.300Z,262.50
2018-11-12T21:20:24.499Z,282.75
2018-11-12T21:22:56.482Z,272.50
2018-11-12T21:27:51.618Z,273.00
2018-11-12T21:30:24.470Z,270.75
2018-11-12T21:32:56.341Z,254.75
2018-11-12T21:35:27.970Z,272.50
2018-11-12T21:38:00.003Z,256.00
2018-11-12T21:43:01.479Z,245.75
2018-11-12T21:45:33.584Z,263.25
2018-11-12T21:56:36.468Z,256.25
2018-11-12T21:59:08.499Z,252.00
2018-11-12T22:01:40.422Z,247.75
2018-11-12T22:06:47.018Z,251.00
2018-11-12T22:09:18.522Z,253.50
2018-11-12T22:11:50.310Z,258.00
2018-11-12T22:14:21.779Z,252.75
2018-11-12T22:16:53.430Z,245.50
2018-11-12T22:19:24.980Z,243.75
2018-11-12T22:21:56.590Z,252.25
2018-11-12T22:24:28.081Z,244.75
2018-11-12T22:27:01.205Z,244.00
2018-11-12T22:29:33.694Z,231.50
2018-11-12T22:32:05.512Z,246.00
2018-11-12T22:34:37.137Z,236.75
2018-11-12T22:37:08.739Z,233.75
2018-11-12T22:39:40.252Z,237.25
2018-11-12T22:42:11.987Z,247.25
2018-11-12T22:44:43.429Z,243.75
2018-11-12T22:47:14.996Z,234.25
2018-11-12T22:49:46.384Z,242.50
2018-11-12T22:52:18.123Z,247.25
2018-11-12T22:54:49.689Z,240.25
2018-11-12T22:57:21.516Z,230.25
2018-11-12T22:59:53.700Z,241.50
2018-11-12T23:02:25.461Z,219.25
2018-11-12T23:04:57.008Z,228.00
2018-11-12T23:07:28.554Z,237.75
2018-11-12T23:10:00.152Z,240.00
2018-11-12T23:12:31.814Z,225.75
2018-11-12T23:15:03.485Z,232.75
2018-11-12T23:17:35.325Z,233.00
2018-11-12T23:20:08.475Z,218.75
2018-11-12T23:22:40.702Z,225.25
2018-11-12T23:25:12.447Z,212.75
2018-11-12T23:27:45.075Z,226.00
2018-11-12T23:30:18.397Z,222.50
2018-11-12T23:32:50.623Z,212.50
2018-11-12T23:35:24.425Z,236.00
2018-11-12T23:37:56.382Z,234.00
2018-11-12T23:40:28.363Z,222.75
2018-11-12T23:43:00.436Z,242.75
2018-11-12T23:47:55.076Z,241.50
2018-11-12T23:50:26.792Z,254.50
2018-11-12T23:52:58.340Z,256.00
2018-11-12T23:55:29.964Z,282.00
2018-11-12T23:58:01.642Z,247.50
